首页
METAR-TAF:

METAR-TAF

机场 :

Laupheim, 德国

纬度: 48-13N, 经度: 009-55E, 海拔: 538米

当前天气观测

该预报发布于16分钟前的06:20 UTC
风速2节,风向南转西南
温度 -2°C
湿度 100%
气压 1015 hPa
能见度10公里或以上
少量云层高于7000英尺
散云层高于21000英尺
浅雾

METAR: ETHL 190620Z 20002KT 9999 MIFG FEW070 SCT210 M02/M02 Q1015 BLU+BLU+

时间: 07:36 (06:36 UTC)

预报

该预报发布于1小时和16分钟前的05:20 UTC
预报有效从19日的 06点(UTC)到 19日的 15点(UTC)
风速3节,风向多变
能见度10公里或以上
散云层高于7000英尺
多云层高于23000英尺

TAF: ETHL 190520Z 1906/1915 VRB03KT 9999 NSW SCT070 BKN230

超过4000个机场的气象观测和天气预报(METAR&TAF报告)。

可查询的气象台以黄色和红色小点在地图上表示。

将鼠标移到小点上方,可查看气象台名称。

然后点击查看天气观测和预报。

如需切换地图:点击带黑十字的绿色按钮放大地图;点击带横线的绿色按钮缩小地图;或者点击绿色箭头查看邻近地区的地图。


METAR-TAF: